Time;durP1;ratioP1;P1;durP2;ratioP2;P2;SDS_P1;SDS_P2;PMS_P1;PMS_P2;Temp;Humidity;BMP_temperature;BMP_pressure;BME280_temperature;BME280_humidity;BME280_pressure;Samples;Min_cycle;Max_cycle;Signal;HPM_P1;HPM_P2
2021/11/22 00:03:44;;;;;;;15.43;11.35;;;;;;;8.79;83.10;100088.59;10261290;28;20662;-58
2021/11/22 00:08:45;;;;;;;13.50;11.18;;;;;;;8.71;82.96;100085.69;10260291;28;20452;-58
2021/11/22 00:13:47;;;;;;;14.43;11.73;;;;;;;8.67;83.24;100092.16;10259460;28;20074;-57
2021/11/22 00:18:49;;;;;;;14.90;11.45;;;;;;;8.72;83.08;100097.13;10259697;28;20089;-58
2021/11/22 00:23:51;;;;;;;13.25;10.40;;;;;;;8.70;82.93;100099.06;10259572;28;20110;-58
2021/11/22 00:28:52;;;;;;;14.50;10.85;;;;;;;8.75;82.79;100105.72;10262253;28;20070;-58
2021/11/22 00:33:54;;;;;;;13.18;9.80;;;;;;;8.62;82.63;100086.38;10258354;28;20071;-56
2021/11/22 00:38:56;;;;;;;12.68;9.20;;;;;;;8.67;82.85;100100.97;10253174;28;20050;-57
2021/11/22 00:43:57;;;;;;;12.13;9.38;;;;;;;8.64;82.47;100097.72;10262216;28;20070;-56
2021/11/22 00:48:59;;;;;;;13.98;9.32;;;;;;;8.74;82.51;100117.28;10267487;28;20503;-57
2021/11/22 00:54:00;;;;;;;12.45;10.35;;;;;;;8.63;83.01;100112.78;10273619;28;20456;-57
2021/11/22 00:59:02;;;;;;;12.65;9.75;;;;;;;8.65;82.75;100120.63;10300369;28;20129;-57
2021/11/22 01:04:04;;;;;;;13.13;9.10;;;;;;;8.61;82.12;100116.50;10318498;28;20085;-57
2021/11/22 01:09:06;;;;;;;10.75;8.23;;;;;;;8.61;81.76;100120.00;10299796;28;20058;-57
2021/11/22 01:14:09;;;;;;;10.55;7.85;;;;;;;8.64;82.02;100126.91;10293418;28;20531;-57
2021/11/22 01:19:10;;;;;;;11.82;8.95;;;;;;;8.53;81.33;100134.78;10315892;28;20073;-57
2021/11/22 01:24:12;;;;;;;8.13;7.00;;;;;;;8.37;81.20;100133.25;10302060;28;20281;-58
2021/11/22 01:29:13;;;;;;;8.25;6.65;;;;;;;8.38;81.06;100145.56;10301073;28;20046;-57
2021/11/22 01:34:15;;;;;;;8.95;6.18;;;;;;;8.32;80.96;100151.31;10300086;28;20050;-57
2021/11/22 01:39:16;;;;;;;10.05;6.65;;;;;;;8.24;80.73;100159.81;10303949;28;20070;-57
2021/11/22 01:44:18;;;;;;;6.85;5.22;;;;;;;8.29;79.94;100162.13;10318490;28;20510;-57
2021/11/22 01:49:20;;;;;;;7.20;4.63;;;;;;;8.14;79.68;100158.78;10299039;28;20081;-57
2021/11/22 01:54:21;;;;;;;6.75;4.03;;;;;;;8.14;79.67;100167.56;10301422;28;20074;-58
2021/11/22 01:59:23;;;;;;;7.60;3.50;;;;;;;8.12;78.70;100176.59;10293160;28;20069;-57
2021/11/22 02:04:24;;;;;;;7.15;3.10;;;;;;;8.01;78.63;100180.00;10298672;28;20142;-57
2021/11/22 02:09:26;;;;;;;6.15;3.17;;;;;;;7.61;80.21;100185.44;10299652;28;20062;-57
2021/11/22 02:14:27;;;;;;;5.60;3.38;;;;;;;7.77;79.95;100191.38;10298966;28;20570;-57
2021/11/22 02:19:29;;;;;;;5.95;3.67;;;;;;;7.76;79.18;100196.78;10297204;28;20066;-57
2021/11/22 02:24:30;;;;;;;6.53;4.18;;;;;;;7.79;79.05;100200.09;10296985;28;20055;-57
2021/11/22 02:29:32;;;;;;;5.90;3.50;;;;;;;7.84;78.67;100210.38;10313714;28;20118;-57
2021/11/22 02:34:33;;;;;;;6.30;3.05;;;;;;;7.77;78.82;100206.44;10301760;28;20137;-57
2021/11/22 02:39:35;;;;;;;7.47;3.30;;;;;;;7.79;78.44;100209.81;10301547;28;20151;-57
2021/11/22 02:44:37;;;;;;;7.93;3.15;;;;;;;7.85;78.48;100205.91;10298093;28;20186;-57
2021/11/22 02:49:38;;;;;;;5.88;2.97;;;;;;;7.82;78.57;100214.06;10301469;28;20081;-57
2021/11/22 02:54:41;;;;;;;4.95;2.80;;;;;;;7.82;78.20;100211.41;10301085;28;20570;-57
2021/11/22 02:59:43;;;;;;;7.70;3.30;;;;;;;7.68;78.92;100212.38;10304516;28;20069;-58
2021/11/22 03:04:44;;;;;;;5.50;3.03;;;;;;;7.54;78.27;100205.38;10295029;28;20042;-57
2021/11/22 03:09:46;;;;;;;8.80;3.63;;;;;;;7.58;79.04;100233.34;10305143;28;20539;-57
2021/11/22 03:14:47;;;;;;;6.18;2.72;;;;;;;7.46;78.44;100213.00;10301982;28;20425;-57
2021/11/22 03:19:49;;;;;;;5.13;2.92;;;;;;;7.54;79.08;100237.19;10306838;28;20070;-57
2021/11/22 03:24:50;;;;;;;6.63;2.42;;;;;;;7.48;78.75;100232.31;10309413;28;20118;-57
2021/11/22 03:29:52;;;;;;;6.05;2.97;;;;;;;7.48;78.79;100245.53;10303587;28;20085;-62
2021/11/22 03:34:55;;;;;;;5.25;2.75;;;;;;;7.49;78.51;100250.75;10307473;28;20145;-57
2021/11/22 03:39:57;;;;;;;6.90;2.90;;;;;;;7.50;79.04;100257.72;10307712;28;20066;-57
2021/11/22 03:44:59;;;;;;;6.65;2.67;;;;;;;7.30;79.12;100251.13;10306499;28;20337;-57
2021/11/22 03:50:00;;;;;;;7.28;3.25;;;;;;;7.27;79.77;100272.50;10307666;28;20667;-57
2021/11/22 03:55:03;;;;;;;6.13;3.00;;;;;;;7.41;79.21;100272.41;10303243;28;20062;-56
2021/11/22 04:00:06;;;;;;;7.65;3.22;;;;;;;7.38;78.71;100275.28;10293656;28;20053;-57
2021/11/22 04:05:08;;;;;;;5.93;2.65;;;;;;;7.35;78.22;100285.22;10301232;28;20299;-57
2021/11/22 04:10:10;;;;;;;7.95;3.30;;;;;;;7.22;78.98;100288.69;10298164;28;20106;-57
2021/11/22 04:15:11;;;;;;;5.80;3.15;;;;;;;7.15;79.04;100294.50;10301161;28;20129;-57
2021/11/22 04:20:15;;;;;;;7.10;2.85;;;;;;;7.14;79.35;100301.56;10260450;28;20138;-57
2021/11/22 04:25:19;;;;;;;6.90;3.30;;;;;;;7.30;78.75;100319.97;10258119;28;20097;-57
2021/11/22 04:30:21;;;;;;;7.47;2.93;;;;;;;7.35;78.47;100327.59;10259609;28;20074;-57
2021/11/22 04:35:22;;;;;;;7.15;3.40;;;;;;;7.35;78.38;100339.03;10257102;28;20575;-57
2021/11/22 04:40:24;;;;;;;6.22;2.92;;;;;;;7.33;78.00;100325.06;10301122;28;20086;-58
2021/11/22 04:45:30;;;;;;;5.78;3.13;;;;;;;7.26;77.86;100339.63;10298221;28;20653;-61
2021/11/22 04:50:32;;;;;;;6.13;3.17;;;;;;;7.25;78.26;100354.69;10298450;28;20046;-57
2021/11/22 04:55:34;;;;;;;6.45;3.13;;;;;;;7.20;78.25;100363.88;10300599;28;20141;-58
2021/11/22 05:00:36;;;;;;;6.10;3.08;;;;;;;7.24;77.85;100373.31;10300443;28;20129;-57
2021/11/22 05:05:38;;;;;;;8.18;3.67;;;;;;;7.13;77.31;100381.09;10313655;28;20112;-57
2021/11/22 05:10:42;;;;;;;6.82;4.15;;;;;;;7.12;77.40;100390.00;10299569;28;20081;-56
2021/11/22 05:15:44;;;;;;;7.25;3.70;;;;;;;7.03;77.62;100394.91;10310832;28;20066;-59
2021/11/22 05:20:45;;;;;;;7.28;3.78;;;;;;;6.84;77.75;100391.72;10298767;28;20054;-57
2021/11/22 05:25:47;;;;;;;8.05;3.13;;;;;;;6.77;77.66;100409.81;10298696;28;20112;-57
2021/11/22 05:30:48;;;;;;;8.70;4.22;;;;;;;6.77;77.45;100417.75;10299367;28;20085;-57
2021/11/22 05:35:50;;;;;;;12.35;4.50;;;;;;;6.66;77.66;100399.84;10296811;28;20046;-57
2021/11/22 05:40:51;;;;;;;7.53;3.80;;;;;;;6.73;77.44;100417.06;10297123;28;20066;-57
2021/11/22 05:45:53;;;;;;;7.88;4.07;;;;;;;6.82;77.16;100435.97;10299782;28;20058;-57
2021/11/22 05:50:56;;;;;;;8.90;3.65;;;;;;;6.76;77.02;100417.84;10296595;28;20421;-61
2021/11/22 05:55:58;;;;;;;7.57;4.13;;;;;;;6.81;76.87;100442.19;10271240;28;20070;-57
2021/11/22 06:01:03;;;;;;;9.27;4.72;;;;;;;6.62;77.86;100459.22;10284548;28;20113;-57
2021/11/22 06:06:05;;;;;;;;;;;;;;;6.76;77.48;100468.09;10266938;28;20085;-58
2021/11/22 06:11:06;;;;;;;10.02;3.80;;;;;;;6.57;77.97;100468.34;10265302;28;20023;-57
2021/11/22 06:16:07;;;;;;;6.00;4.00;;;;;;;6.48;77.83;100453.88;10262659;28;20130;-57
2021/11/22 06:21:10;;;;;;;9.65;4.43;;;;;;;6.73;77.30;100479.72;10263975;28;20537;-56
2021/11/22 06:26:11;;;;;;;9.00;4.82;;;;;;;6.67;76.72;100498.59;10272828;28;20095;-57
2021/11/22 06:31:12;;;;;;;8.30;3.95;;;;;;;6.57;77.32;100502.75;10272136;28;20330;-57
2021/11/22 06:36:14;;;;;;;10.77;4.28;;;;;;;6.16;77.37;100470.72;10285717;28;20051;-58
2021/11/22 06:41:17;;;;;;;5.43;4.20;;;;;;;6.28;78.11;100511.44;10275112;28;20058;-58
2021/11/22 06:46:18;;;;;;;9.20;4.90;;;;;;;6.18;78.73;100526.16;10266083;28;20053;-57
2021/11/22 06:51:20;;;;;;;7.03;3.92;;;;;;;6.07;78.89;100523.28;10255090;28;20137;-57
2021/11/22 06:56:21;;;;;;;10.10;5.20;;;;;;;6.11;79.02;100541.50;10267352;28;20050;-57
2021/11/22 07:01:23;;;;;;;10.48;5.32;;;;;;;6.28;78.44;100551.13;10250487;28;20066;-57
2021/11/22 07:06:25;;;;;;;6.65;4.13;;;;;;;6.15;79.02;100568.63;10252730;28;20057;-57
2021/11/22 07:11:26;;;;;;;9.40;4.43;;;;;;;6.28;94.95;100574.06;10259614;28;20756;-54
2021/11/22 07:16:28;;;;;;;8.07;4.20;;;;;;;7.62;82.73;100579.25;10257013;28;20057;-53
2021/11/22 07:21:30;;;;;;;4.90;4.32;;;;;;;7.74;73.85;100590.88;10257300;28;20054;-58
2021/11/22 07:26:31;;;;;;;7.72;4.35;;;;;;;7.01;75.38;100590.03;10254045;28;20074;-57
2021/11/22 07:31:36;;;;;;;5.50;4.57;;;;;;;6.82;76.17;100603.50;10257918;28;20413;-59
2021/11/22 07:36:38;;;;;;;6.03;4.60;;;;;;;6.73;76.21;100615.50;10251647;28;20058;-57
2021/11/22 07:41:40;;;;;;;7.47;4.40;;;;;;;6.45;77.39;100610.94;10250225;28;20247;-57
2021/11/22 07:46:41;;;;;;;6.75;4.28;;;;;;;6.53;77.17;100632.53;10250147;28;20105;-57
2021/11/22 07:51:43;;;;;;;8.80;4.75;;;;;;;6.67;77.04;100634.38;10254625;28;20054;-57
2021/11/22 07:56:44;;;;;;;7.43;4.28;;;;;;;6.60;76.16;100630.38;10252080;28;20141;-57
2021/11/22 08:01:47;;;;;;;8.48;5.70;;;;;;;6.78;76.07;100656.72;10301432;28;20734;-61
2021/11/22 08:06:53;;;;;;;5.63;3.90;;;;;;;6.81;76.09;100661.81;10300372;28;20865;-57
2021/11/22 08:17:12;;;;;;;8.25;4.38;;;;;;;6.78;76.01;100670.78;10250786;28;20050;-57
2021/11/22 08:22:13;;;;;;;5.78;4.47;;;;;;;6.73;76.26;100664.91;10256991;28;20058;-57
2021/11/22 08:27:15;;;;;;;6.03;4.82;;;;;;;6.77;76.04;100697.34;10254621;28;20057;-57
2021/11/22 08:32:18;;;;;;;4.93;4.25;;;;;;;6.73;76.43;100702.81;10250680;28;20076;-62
2021/11/22 08:37:20;;;;;;;5.85;4.57;;;;;;;6.85;75.97;100706.53;10257026;28;20055;-56
2021/11/22 08:42:22;;;;;;;7.78;5.60;;;;;;;6.83;75.84;100723.44;10258313;28;20062;-56
2021/11/22 08:47:24;;;;;;;6.30;4.40;;;;;;;6.99;75.61;100731.34;10254181;28;20407;-57
2021/11/22 08:52:26;;;;;;;6.53;4.00;;;;;;;7.22;74.46;100752.06;10255766;28;20151;-57
2021/11/22 08:57:27;;;;;;;4.25;3.85;;;;;;;7.52;73.18;100755.63;10308214;28;20046;-58
2021/11/22 09:02:29;;;;;;;4.47;3.72;;;;;;;7.63;71.54;100766.44;10319180;28;20141;-60
2021/11/22 09:07:31;;;;;;;4.75;3.50;;;;;;;7.92;70.63;100767.31;10305671;28;20135;-59
2021/11/22 09:12:32;;;;;;;4.65;3.83;;;;;;;7.97;70.67;100774.97;10304522;28;20145;-58
2021/11/22 09:17:34;;;;;;;4.75;3.53;;;;;;;7.92;70.73;100787.66;10307195;28;20045;-57
2021/11/22 09:22:36;;;;;;;7.25;3.80;;;;;;;8.08;70.54;100793.75;10311883;28;20220;-58
2021/11/22 09:27:38;;;;;;;4.38;3.38;;;;;;;8.14;69.46;100798.66;10301507;28;20121;-57
2021/11/22 09:32:40;;;;;;;4.68;3.22;;;;;;;8.09;69.67;100800.75;10319873;28;20050;-58
2021/11/22 09:37:41;;;;;;;3.55;3.15;;;;;;;8.25;68.79;100810.41;10307081;28;20218;-58
2021/11/22 09:42:43;;;;;;;3.20;2.90;;;;;;;8.23;69.26;100813.16;10309965;28;20521;-57
2021/11/22 09:47:44;;;;;;;5.15;2.85;;;;;;;8.24;68.56;100814.00;10304414;28;20066;-58
2021/11/22 09:52:46;;;;;;;2.70;2.30;;;;;;;8.30;68.23;100821.56;10308654;28;20145;-57
2021/11/22 09:57:48;;;;;;;3.58;2.40;;;;;;;8.14;67.81;100817.22;10314500;28;20061;-57
2021/11/22 10:02:56;;;;;;;4.15;3.00;;;;;;;8.13;68.28;100844.69;10291457;28;20392;-58
2021/11/22 10:08:01;;;;;;;3.70;2.65;;;;;;;7.92;68.43;100835.38;10258541;28;20085;-57
2021/11/22 10:13:18;;;;;;;4.70;2.80;;;;;;;7.93;67.94;100816.75;10262750;28;20128;-57
2021/11/22 10:18:26;;;;;;;2.53;2.33;;;;;;;7.76;68.73;100819.53;10256055;28;20053;-58
2021/11/22 10:23:28;;;;;;;2.65;2.40;;;;;;;8.13;68.16;100841.19;10273700;28;20046;-57
2021/11/22 10:28:37;;;;;;;3.13;2.55;;;;;;;8.54;67.14;100858.19;10259440;28;20332;-63
2021/11/22 10:33:39;;;;;;;4.63;2.60;;;;;;;8.47;67.08;100855.91;10251759;28;20209;-58
2021/11/22 10:38:45;;;;;;;5.45;2.40;;;;;;;8.47;66.68;100853.25;10317110;28;20065;-58
2021/11/22 10:43:56;;;;;;;3.55;2.55;;;;;;;8.74;66.27;100855.13;10316514;28;20069;-58
2021/11/22 10:49:44;;;;;;;2.08;1.88;;;;;;;10.82;59.80;100844.78;10315297;28;20050;-58
2021/11/22 10:54:57;;;;;;;2.65;2.15;;;;;;;10.61;59.24;100856.00;10308054;28;20534;-58
2021/11/22 10:59:58;;;;;;;2.33;2.00;;;;;;;10.07;59.66;100810.03;10314505;28;20537;-57
2021/11/22 11:05:00;;;;;;;2.65;2.20;;;;;;;10.19;59.69;100848.25;10325578;28;20226;-58
2021/11/22 11:10:02;;;;;;;2.55;1.50;;;;;;;10.22;59.26;100829.41;10311588;28;20078;-59
2021/11/22 11:15:10;;;;;;;2.58;2.03;;;;;;;11.05;57.32;100848.41;10313684;28;20574;-59
2021/11/22 11:20:16;;;;;;;1.60;1.50;;;;;;;13.01;52.45;100847.59;10313229;28;20628;-60
2021/11/22 11:25:22;;;;;;;0.98;0.75;;;;;;;18.72;38.10;100837.59;10320071;28;20407;-58
2021/11/22 11:30:23;;;;;;;1.50;0.90;;;;;;;20.88;33.47;100847.34;10326307;28;20153;-60
2021/11/22 11:35:26;;;;;;;0.57;0.50;;;;;;;18.45;35.49;100844.03;10323516;28;20185;-60
2021/11/22 11:40:49;;;;;;;0.93;0.83;;;;;;;14.25;44.80;100850.72;10311123;28;20579;-58
2021/11/22 11:46:16;;;;;;;1.60;0.90;;;;;;;12.18;49.30;100859.56;10306382;28;20298;-58
2021/11/22 11:51:21;;;;;;;1.10;0.60;;;;;;;11.23;52.15;100868.41;10287338;28;20046;-58
2021/11/22 11:56:51;;;;;;;1.00;0.70;;;;;;;10.82;54.26;100863.41;10323247;28;21710;-59
2021/11/22 12:02:06;;;;;;;1.40;0.70;;;;;;;10.47;54.43;100880.94;10309320;28;20105;-58
2021/11/22 12:07:10;;;;;;;1.30;0.63;;;;;;;9.95;56.92;100880.00;10265187;28;20043;-59
2021/11/22 12:12:11;;;;;;;1.52;0.63;;;;;;;9.93;56.58;100886.41;10273046;28;20557;-59
2021/11/22 12:17:47;;;;;;;0.73;0.70;;;;;;;10.16;56.40;100885.69;10286891;28;20224;-58
2021/11/22 12:23:07;;;;;;;1.15;0.75;;;;;;;10.64;54.63;100849.59;10252467;28;20132;-58
2021/11/22 12:28:23;;;;;;;0.80;0.63;;;;;;;11.21;53.50;100888.97;10302044;28;20491;-59
2021/11/22 12:33:25;;;;;;;1.58;0.80;;;;;;;12.36;50.87;100884.81;10307236;28;20743;-58
2021/11/22 12:38:42;;;;;;;1.67;1.13;;;;;;;12.43;49.08;100890.53;10311802;28;20204;-62
2021/11/22 12:44:10;;;;;;;0.80;0.57;;;;;;;11.79;51.10;100890.97;10309287;28;20088;-59
2021/11/22 12:49:26;;;;;;;1.50;0.90;;;;;;;11.06;52.69;100895.41;10310938;28;20168;-58
2021/11/22 12:54:28;;;;;;;1.45;0.32;;;;;;;10.21;54.75;100902.19;10321111;28;20130;-58
2021/11/22 12:59:30;;;;;;;1.50;0.80;;;;;;;10.01;56.12;100905.34;10308458;28;20068;-58
2021/11/22 13:04:44;;;;;;;1.55;1.15;;;;;;;9.96;56.38;100912.81;10307141;28;20077;-59
2021/11/22 13:09:47;;;;;;;2.58;0.60;;;;;;;10.02;55.82;100917.72;10255857;28;20232;-58
2021/11/22 13:14:50;;;;;;;0.80;0.55;;;;;;;9.64;56.05;100915.81;10265666;28;20133;-58
2021/11/22 13:19:56;;;;;;;1.00;0.77;;;;;;;10.80;53.64;100914.13;10251712;28;20078;-57
2021/11/22 13:24:58;;;;;;;0.73;0.40;;;;;;;18.11;36.54;100909.50;10251871;28;20375;-59
2021/11/22 13:29:59;;;;;;;0.47;0.20;;;;;;;19.75;33.36;100909.34;10263954;28;20078;-58
2021/11/22 13:35:01;;;;;;;0.77;0.50;;;;;;;15.16;40.30;100918.69;10266055;28;20157;-59
2021/11/22 13:40:02;;;;;;;0.80;0.40;;;;;;;13.08;44.98;100929.00;10251591;28;20505;-59
2021/11/22 13:45:04;;;;;;;1.73;0.60;;;;;;;12.44;47.14;100936.75;10249867;28;20149;-59
2021/11/22 13:50:06;;;;;;;0.73;0.50;;;;;;;11.79;48.43;100934.47;10242668;28;20169;-59
2021/11/22 13:55:08;;;;;;;0.80;0.50;;;;;;;10.88;50.32;100925.06;10244706;28;20058;-59
2021/11/22 14:00:10;;;;;;;1.38;0.30;;;;;;;10.54;50.72;100951.44;10246116;28;20125;-59
2021/11/22 14:05:12;;;;;;;2.15;0.55;;;;;;;10.12;52.12;100969.34;10250035;28;20053;-58
2021/11/22 14:10:14;;;;;;;1.85;0.35;;;;;;;10.16;52.30;100967.31;10245972;28;20358;-59
2021/11/22 14:15:21;;;;;;;0.50;0.20;;;;;;;10.21;52.01;100975.84;10252617;28;20050;-59
2021/11/22 14:20:23;;;;;;;0.68;0.45;;;;;;;10.26;51.59;100985.19;10248947;28;20456;-57
2021/11/22 14:25:26;;;;;;;1.00;0.43;;;;;;;10.06;51.97;100985.72;10267731;28;20531;-58
2021/11/22 14:30:32;;;;;;;1.40;0.50;;;;;;;9.95;52.25;100996.19;10246222;28;20125;-59
2021/11/22 14:35:35;;;;;;;0.90;0.38;;;;;;;9.76;52.56;100994.75;10249460;28;20046;-57
2021/11/22 14:40:36;;;;;;;1.20;0.60;;;;;;;9.66;52.68;101013.09;10245266;28;20098;-62
2021/11/22 14:45:52;;;;;;;2.13;0.40;;;;;;;9.30;53.38;101000.38;10248389;28;20058;-58
2021/11/22 14:51:15;;;;;;;1.40;0.55;;;;;;;9.25;54.21;101008.63;10251506;28;20070;-58
2021/11/22 14:56:21;;;;;;;0.60;0.30;;;;;;;9.10;54.12;101020.22;10303155;28;20052;-59
2021/11/22 15:01:26;;;;;;;1.48;0.43;;;;;;;8.95;54.43;101016.72;10306985;28;20495;-59
2021/11/22 15:06:31;;;;;;;1.00;0.60;;;;;;;8.70;54.55;101025.31;10309398;28;20064;-58
2021/11/22 15:11:35;;;;;;;0.90;0.52;;;;;;;8.53;55.32;101036.91;10307902;28;20081;-58
2021/11/22 15:16:36;;;;;;;1.08;0.50;;;;;;;8.31;54.88;101015.13;10330657;28;20057;-59
2021/11/22 15:21:39;;;;;;;1.02;0.80;;;;;;;8.20;55.51;101033.47;10316162;28;20110;-59
2021/11/22 15:26:41;;;;;;;0.93;0.60;;;;;;;8.05;55.85;101029.06;10314735;28;20085;-59
2021/11/22 15:31:46;;;;;;;1.13;0.63;;;;;;;8.05;55.78;101042.34;10313397;28;20141;-58
2021/11/22 15:36:51;;;;;;;1.00;0.73;;;;;;;8.05;55.64;101050.28;10312253;28;20060;-60
2021/11/22 15:41:55;;;;;;;2.25;0.93;;;;;;;7.90;55.99;101060.81;10315485;28;20050;-59
2021/11/22 15:46:57;;;;;;;3.13;0.90;;;;;;;7.88;56.90;101067.13;10305342;28;20085;-58
2021/11/22 15:51:58;;;;;;;2.10;1.05;;;;;;;7.76;56.52;101079.25;10302608;28;20164;-58
2021/11/22 15:57:01;;;;;;;3.60;2.00;;;;;;;7.70;56.59;101075.19;10308366;28;20474;-58
2021/11/22 16:02:02;;;;;;;1.83;0.70;;;;;;;7.49;57.49;101086.94;10311157;28;20046;-58
2021/11/22 16:07:05;;;;;;;2.88;1.42;;;;;;;7.43;57.36;101096.94;10308722;28;20064;-58
2021/11/22 16:12:07;;;;;;;1.80;0.93;;;;;;;7.35;57.86;101101.78;10303588;28;20069;-59
2021/11/22 16:17:12;;;;;;;1.33;0.82;;;;;;;7.12;58.45;101089.78;10310176;28;20058;-59
2021/11/22 16:22:14;;;;;;;1.67;0.97;;;;;;;7.13;58.20;101117.09;10313132;28;20045;-59
2021/11/22 16:27:16;;;;;;;3.95;1.13;;;;;;;6.98;58.46;101098.44;10322817;28;20395;-57
2021/11/22 16:32:18;;;;;;;2.60;1.05;;;;;;;6.98;59.00;101122.28;10306614;28;20047;-57
2021/11/22 16:37:20;;;;;;;1.35;1.02;;;;;;;6.90;58.54;101130.59;10310826;28;20718;-58
2021/11/22 16:42:22;;;;;;;1.75;1.15;;;;;;;6.87;58.28;101129.91;10313494;28;20074;-61
2021/11/22 16:47:23;;;;;;;1.88;1.30;;;;;;;6.78;58.44;101133.00;10309822;28;20486;-58
2021/11/22 16:52:25;;;;;;;3.30;2.13;;;;;;;6.74;57.91;101132.31;10308235;28;20069;-60
2021/11/22 16:57:26;;;;;;;2.88;1.38;;;;;;;6.56;58.57;101144.69;10308408;28;20399;-59
2021/11/22 17:02:28;;;;;;;1.40;1.27;;;;;;;6.62;57.86;101144.38;10309634;28;20175;-60
2021/11/22 17:07:30;;;;;;;1.42;1.00;;;;;;;6.71;57.67;101154.50;10309181;28;20126;-60
2021/11/22 17:12:31;;;;;;;1.90;1.33;;;;;;;6.60;58.00;101164.75;10305470;28;20148;-60
2021/11/22 17:17:35;;;;;;;2.38;1.35;;;;;;;6.49;57.96;101167.06;10306834;28;20129;-59
2021/11/22 17:22:36;;;;;;;2.78;1.50;;;;;;;6.45;57.49;101173.44;10306237;28;20177;-61
2021/11/22 17:27:39;;;;;;;2.00;1.60;;;;;;;6.46;58.16;101175.16;10305998;28;20524;-60
2021/11/22 17:32:41;;;;;;;3.83;2.20;;;;;;;6.50;57.70;101182.00;10307511;28;20054;-58
2021/11/22 17:37:44;;;;;;;3.33;2.30;;;;;;;6.45;58.36;101191.94;10309815;28;20167;-60
2021/11/22 17:42:48;;;;;;;2.50;1.48;;;;;;;6.34;58.26;101198.59;10310600;28;20145;-59
2021/11/22 17:47:51;;;;;;;4.40;1.95;;;;;;;6.12;59.00;101182.88;10295229;28;20131;-60
2021/11/22 17:52:53;;;;;;;2.22;1.83;;;;;;;6.27;58.64;101212.19;10306897;28;20041;-60
2021/11/22 17:57:54;;;;;;;2.10;1.88;;;;;;;6.21;59.28;101208.03;10301614;28;20130;-60
2021/11/22 18:02:58;;;;;;;2.90;1.92;;;;;;;6.19;59.03;101216.06;10302295;28;20145;-59
2021/11/22 18:08:00;;;;;;;2.55;1.77;;;;;;;5.99;59.32;101203.78;10303115;28;20460;-59
2021/11/22 18:13:02;;;;;;;3.38;1.90;;;;;;;6.07;59.34;101226.34;10300311;28;20188;-59
2021/11/22 18:18:03;;;;;;;2.70;2.33;;;;;;;6.10;59.15;101220.94;10309368;28;20065;-59
2021/11/22 18:23:07;;;;;;;4.28;3.00;;;;;;;6.03;60.41;101235.34;10314680;28;20088;-46
2021/11/22 18:28:10;;;;;;;3.23;1.73;;;;;;;6.46;61.09;101243.94;10312488;28;20146;-48
2021/11/22 18:33:12;;;;;;;2.30;1.80;;;;;;;6.48;59.41;101242.91;10326848;28;20521;-54
2021/11/22 18:38:13;;;;;;;3.63;1.92;;;;;;;6.58;59.94;101248.63;10316247;28;20136;-59
2021/11/22 18:43:14;;;;;;;3.15;2.42;;;;;;;6.46;59.03;101259.78;10314300;28;20189;-57
2021/11/22 18:48:16;;;;;;;2.92;2.25;;;;;;;6.05;60.28;101270.47;10313647;28;20137;-58
2021/11/22 18:53:18;;;;;;;2.72;2.00;;;;;;;5.79;61.76;101267.19;10310922;28;20283;-59
2021/11/22 18:58:19;;;;;;;4.68;2.17;;;;;;;5.46;62.25;101267.75;10314829;28;20061;-58
2021/11/22 19:03:21;;;;;;;5.40;3.38;;;;;;;5.41;62.69;101275.84;10314268;28;20054;-62
2021/11/22 19:08:23;;;;;;;2.10;1.85;;;;;;;5.38;62.69;101285.72;10312244;28;20491;-58
2021/11/22 19:13:27;;;;;;;3.00;2.33;;;;;;;5.34;62.53;101294.66;10309353;28;20448;-60
2021/11/22 19:18:28;;;;;;;3.40;2.20;;;;;;;5.21;62.42;101295.19;10311427;28;20087;-59
2021/11/22 19:23:31;;;;;;;4.38;2.17;;;;;;;5.14;63.27;101304.28;10310731;28;20052;-60
2021/11/22 19:28:33;;;;;;;2.55;2.00;;;;;;;5.13;64.03;101307.81;10306697;28;20348;-58
2021/11/22 19:33:34;;;;;;;3.33;2.10;;;;;;;5.01;63.80;101313.63;10313874;28;20058;-58
2021/11/22 19:38:35;;;;;;;2.92;2.50;;;;;;;5.01;64.28;101316.25;10313535;28;20053;-59
2021/11/22 19:43:37;;;;;;;3.47;2.38;;;;;;;4.94;64.11;101323.56;10307585;28;20084;-58
2021/11/22 19:48:39;;;;;;;4.63;2.58;;;;;;;4.82;64.10;101324.91;10309421;28;20076;-58
2021/11/22 19:53:42;;;;;;;3.70;2.80;;;;;;;4.81;64.28;101328.47;10310192;28;20588;-59
2021/11/22 19:58:43;;;;;;;4.18;2.80;;;;;;;4.82;65.04;101327.53;10306451;28;20103;-58
2021/11/22 20:03:45;;;;;;;2.83;2.38;;;;;;;4.81;64.01;101331.09;10311249;28;20151;-61
2021/11/22 20:08:47;;;;;;;3.80;3.38;;;;;;;4.82;64.23;101334.59;10303100;28;20145;-61
2021/11/22 20:13:49;;;;;;;3.72;2.72;;;;;;;4.68;64.62;101338.63;10305302;28;20551;-60
2021/11/22 20:18:53;;;;;;;3.55;2.38;;;;;;;4.67;64.44;101334.28;10304814;28;20478;-61
2021/11/22 20:23:54;;;;;;;3.67;2.92;;;;;;;4.62;64.70;101341.50;10320817;28;20111;-59
2021/11/22 20:28:56;;;;;;;3.17;2.80;;;;;;;4.56;64.83;101350.53;10307640;28;20184;-60
2021/11/22 20:33:58;;;;;;;4.15;2.92;;;;;;;4.43;64.82;101331.66;10309070;28;20458;-60
2021/11/22 20:39:01;;;;;;;3.47;2.55;;;;;;;4.56;64.61;101355.78;10318299;28;20058;-60
2021/11/22 20:44:04;;;;;;;2.80;2.60;;;;;;;4.54;65.04;101356.75;10344145;23;20082;-65
2021/11/22 20:49:06;;;;;;;4.72;3.80;;;;;;;4.51;65.04;101363.00;10323008;28;20143;-65
2021/11/22 20:54:07;;;;;;;3.58;2.80;;;;;;;4.49;64.88;101358.69;10328361;28;20421;-66
2021/11/22 20:59:09;;;;;;;3.53;2.88;;;;;;;4.49;64.86;101362.22;10331468;28;20050;-65
2021/11/22 21:04:22;;;;;;;3.13;2.83;;;;;;;4.44;64.98;101366.78;10331159;28;20038;-66
2021/11/22 21:09:24;;;;;;;6.18;3.88;;;;;;;4.41;65.07;101369.53;10331865;28;20148;-65
2021/11/22 21:14:28;;;;;;;4.45;2.92;;;;;;;4.32;65.40;101373.34;10329132;28;20037;-66
2021/11/22 21:19:30;;;;;;;4.70;2.60;;;;;;;4.25;65.58;101369.25;10324827;28;21272;-66
2021/11/22 21:24:32;;;;;;;5.28;3.35;;;;;;;4.28;65.38;101371.78;10265771;28;20132;-66
2021/11/22 21:29:35;;;;;;;5.38;3.55;;;;;;;4.23;65.31;101377.22;10265941;28;20049;-66
2021/11/22 21:34:44;;;;;;;2.90;2.70;;;;;;;4.18;65.42;101371.22;10264222;28;20039;-66
2021/11/22 21:39:45;;;;;;;4.83;3.50;;;;;;;4.15;65.70;101379.25;10263859;28;20515;-66
2021/11/22 21:44:47;;;;;;;4.22;3.35;;;;;;;4.15;65.76;101381.88;10322423;28;20382;-65
2021/11/22 21:49:48;;;;;;;2.75;2.53;;;;;;;4.09;65.67;101392.66;10289497;28;20180;-67
2021/11/22 21:54:50;;;;;;;3.42;3.13;;;;;;;4.07;66.00;101391.84;10265917;28;20134;-64
2021/11/22 21:59:51;;;;;;;3.90;3.15;;;;;;;4.10;66.17;101398.75;10266053;28;20050;-65
2021/11/22 22:04:53;;;;;;;3.50;2.97;;;;;;;4.10;66.41;101398.75;10269705;28;20154;-64
2021/11/22 22:09:54;;;;;;;3.95;3.33;;;;;;;4.08;66.42;101401.44;10266504;28;20137;-63
2021/11/22 22:14:56;;;;;;;4.60;3.35;;;;;;;4.04;65.98;101394.59;10266816;28;20634;-69
2021/11/22 22:19:57;;;;;;;4.65;3.10;;;;;;;3.97;65.88;101409.72;10296925;28;20552;-65
2021/11/22 22:24:59;;;;;;;3.67;3.30;;;;;;;3.93;66.49;101426.56;10299033;28;20320;-64
2021/11/22 22:30:00;;;;;;;4.50;2.90;;;;;;;3.88;66.61;101420.59;10302336;28;20472;-64
2021/11/22 22:35:03;;;;;;;4.63;3.25;;;;;;;3.92;66.52;101437.16;10313381;28;20477;-64
2021/11/22 22:40:06;;;;;;;3.92;2.80;;;;;;;3.88;66.58;101442.50;10307843;28;20522;-65
2021/11/22 22:45:08;;;;;;;5.32;3.05;;;;;;;3.87;66.40;101432.03;10310868;28;20054;-64
2021/11/22 22:50:10;;;;;;;5.63;3.47;;;;;;;3.83;66.76;101431.28;10303182;28;20151;-64
2021/11/22 22:55:11;;;;;;;4.82;4.22;;;;;;;3.81;66.82;101435.72;10315152;28;20060;-64
2021/11/22 23:00:54;;;;;;;6.15;4.00;;;;;;;3.74;66.92;101443.88;10312034;28;20133;-64
2021/11/22 23:05:57;;;;;;;5.57;4.00;;;;;;;3.64;67.30;101443.34;10286596;28;20130;-65
2021/11/22 23:10:59;;;;;;;7.20;3.60;;;;;;;3.66;67.56;101445.03;10311297;28;20531;-64
2021/11/22 23:16:01;;;;;;;6.25;4.57;;;;;;;3.74;67.63;101455.31;10309082;28;20507;-64
2021/11/22 23:21:08;;;;;;;4.75;3.38;;;;;;;3.65;67.41;101456.47;10303663;28;20440;-65
2021/11/22 23:26:10;;;;;;;4.78;3.90;;;;;;;3.65;67.64;101458.25;10264122;28;20098;-64
2021/11/22 23:31:11;;;;;;;3.97;3.53;;;;;;;3.63;67.92;101453.00;10272463;28;20130;-65
2021/11/22 23:36:14;;;;;;;4.80;3.03;;;;;;;3.60;67.88;101463.63;10262403;28;20068;-64